createdAt,value
2023-03-22T00:01:32.357Z,99.90
2023-03-22T00:03:59.268Z,99.90
2023-03-22T00:06:26.577Z,99.90
2023-03-22T00:08:54.176Z,99.90
2023-03-22T00:11:22.581Z,99.90
2023-03-22T00:13:52.384Z,99.90
2023-03-22T00:16:19.638Z,99.90
2023-03-22T00:18:46.403Z,99.90
2023-03-22T00:21:15.301Z,99.90
2023-03-22T00:23:42.372Z,99.90
2023-03-22T00:26:10.901Z,99.90
2023-03-22T00:28:37.605Z,99.90
2023-03-22T00:31:05.838Z,99.90
2023-03-22T00:33:33.054Z,99.90
2023-03-22T00:36:05.553Z,99.90
2023-03-22T00:38:42.652Z,99.90
2023-03-22T00:41:14.318Z,99.90
2023-03-22T00:43:41.645Z,99.90
2023-03-22T00:46:09.833Z,99.90
2023-03-22T00:48:36.617Z,99.90
2023-03-22T00:51:04.007Z,99.90
2023-03-22T00:53:32.785Z,99.90
2023-03-22T00:55:59.916Z,99.90
2023-03-22T00:58:26.798Z,99.90
2023-03-22T01:00:53.640Z,99.90
2023-03-22T01:03:21.856Z,99.90
2023-03-22T01:05:49.346Z,99.90
2023-03-22T01:08:16.716Z,99.90
2023-03-22T01:10:44.445Z,99.90
2023-03-22T01:13:12.278Z,99.90
2023-03-22T01:15:38.993Z,99.90
2023-03-22T01:18:05.805Z,99.90
2023-03-22T01:20:32.504Z,99.90
2023-03-22T01:22:59.546Z,99.90
2023-03-22T01:25:26.323Z,99.90
2023-03-22T01:27:53.873Z,99.90
2023-03-22T01:30:20.682Z,99.90
2023-03-22T01:32:47.295Z,99.90
2023-03-22T01:35:13.939Z,99.90
2023-03-22T01:37:40.583Z,99.90
2023-03-22T01:40:08.004Z,99.90
2023-03-22T01:42:34.725Z,99.90
2023-03-22T01:45:38.186Z,99.90
2023-03-22T01:48:13.479Z,99.90
2023-03-22T01:50:44.017Z,99.90
2023-03-22T01:53:13.603Z,99.90
2023-03-22T01:55:41.410Z,99.90
2023-03-22T01:58:08.398Z,99.90
2023-03-22T02:00:36.027Z,99.90
2023-03-22T02:03:03.078Z,99.90
2023-03-22T02:05:30.931Z,99.90
2023-03-22T02:07:57.708Z,99.90
2023-03-22T02:10:27.043Z,99.90
2023-03-22T02:13:19.318Z,99.90
2023-03-22T02:16:12.668Z,99.90
2023-03-22T02:19:14.148Z,99.90
2023-03-22T02:22:21.965Z,99.90
2023-03-22T02:25:27.509Z,99.90
2023-03-22T02:28:11.998Z,99.90
2023-03-22T02:30:44.761Z,99.90
2023-03-22T02:33:20.316Z,99.90
2023-03-22T02:35:53.811Z,99.90
2023-03-22T02:38:33.593Z,99.90
2023-03-22T02:41:16.418Z,99.90
2023-03-22T02:44:02.153Z,99.90
2023-03-22T02:46:41.160Z,99.90
2023-03-22T02:49:41.417Z,99.90
2023-03-22T02:52:19.506Z,99.90
2023-03-22T02:55:05.010Z,99.90
2023-03-22T02:57:54.969Z,99.90
2023-03-22T03:00:21.688Z,99.90
2023-03-22T03:02:59.996Z,99.90
2023-03-22T03:05:30.836Z,99.90
2023-03-22T03:08:01.254Z,99.90
2023-03-22T03:10:28.467Z,99.90
2023-03-22T03:12:55.085Z,99.90
2023-03-22T03:15:23.615Z,99.90
2023-03-22T03:18:08.474Z,99.90
2023-03-22T03:21:10.073Z,99.90
2023-03-22T03:23:54.918Z,99.90
2023-03-22T03:26:37.256Z,99.90
2023-03-22T03:29:37.134Z,99.90
2023-03-22T03:32:35.473Z,99.90
2023-03-22T03:35:17.884Z,99.90
2023-03-22T03:37:50.005Z,99.90
2023-03-22T03:40:25.556Z,99.90
2023-03-22T03:42:54.209Z,99.90
2023-03-22T03:45:22.081Z,99.90
2023-03-22T03:47:56.838Z,99.90
2023-03-22T03:50:25.742Z,99.90
2023-03-22T03:52:54.429Z,99.90
2023-03-22T03:55:22.528Z,99.90
2023-03-22T03:57:49.352Z,99.90
2023-03-22T04:00:16.886Z,99.90
2023-03-22T04:02:44.137Z,99.90
2023-03-22T04:05:12.645Z,99.90
2023-03-22T04:07:39.854Z,99.90
2023-03-22T04:10:07.562Z,99.90
2023-03-22T04:12:34.395Z,99.90
2023-03-22T04:15:01.161Z,99.90
2023-03-22T04:17:32.016Z,99.90
2023-03-22T04:19:58.755Z,99.90
2023-03-22T04:22:26.571Z,99.90
2023-03-22T04:24:53.192Z,99.90
2023-03-22T04:27:22.295Z,99.90
2023-03-22T04:29:50.789Z,99.90
2023-03-22T04:32:18.921Z,99.90
2023-03-22T04:34:46.399Z,99.90
2023-03-22T04:37:14.314Z,99.90
2023-03-22T04:39:41.112Z,99.90
2023-03-22T04:42:08.175Z,99.90
2023-03-22T04:44:35.517Z,99.90
2023-03-22T04:47:02.487Z,99.90
2023-03-22T04:49:29.250Z,99.90
2023-03-22T04:51:56.796Z,99.90
2023-03-22T04:54:24.322Z,99.90
2023-03-22T04:56:51.200Z,99.90
2023-03-22T04:59:20.187Z,99.90
2023-03-22T05:01:48.274Z,99.90
2023-03-22T05:04:16.363Z,99.90
2023-03-22T05:06:43.118Z,99.90
2023-03-22T05:09:10.651Z,99.90
2023-03-22T05:11:37.491Z,99.90
2023-03-22T05:14:04.631Z,99.90
2023-03-22T05:16:31.438Z,99.90
2023-03-22T05:18:58.226Z,99.90
2023-03-22T05:21:28.510Z,99.90
2023-03-22T05:23:57.120Z,99.90
2023-03-22T05:26:26.319Z,99.90
2023-03-22T05:28:54.290Z,99.90
2023-03-22T05:31:22.663Z,99.90
2023-03-22T05:33:50.459Z,99.90
2023-03-22T05:36:19.105Z,99.90
2023-03-22T05:38:46.539Z,99.90
2023-03-22T05:41:14.208Z,99.90
2023-03-22T05:43:41.370Z,99.90
2023-03-22T05:46:10.263Z,99.90
2023-03-22T05:48:38.118Z,99.90
2023-03-22T05:51:17.434Z,99.90
2023-03-22T05:53:45.341Z,99.90
2023-03-22T05:56:12.899Z,99.90
2023-03-22T05:58:41.094Z,99.90
2023-03-22T06:01:10.919Z,99.90
2023-03-22T06:03:38.775Z,99.90
2023-03-22T06:06:10.593Z,99.90
2023-03-22T06:08:39.481Z,99.90
2023-03-22T06:11:07.137Z,99.90
2023-03-22T06:13:33.997Z,99.90
2023-03-22T06:16:02.852Z,99.90
2023-03-22T06:18:30.324Z,99.90
2023-03-22T06:20:57.356Z,99.90
2023-03-22T06:23:24.210Z,99.90
2023-03-22T06:25:50.973Z,99.90
2023-03-22T06:28:17.637Z,99.90
2023-03-22T06:30:44.245Z,99.90
2023-03-22T06:33:10.986Z,99.90
2023-03-22T06:35:37.759Z,99.90
2023-03-22T06:38:04.520Z,99.90
2023-03-22T06:40:31.208Z,99.90
2023-03-22T06:42:57.830Z,99.90
2023-03-22T06:45:24.603Z,99.90
2023-03-22T06:47:51.272Z,99.90
2023-03-22T06:50:18.055Z,99.90
2023-03-22T06:52:44.689Z,99.90
2023-03-22T06:55:11.378Z,99.90
2023-03-22T06:57:38.055Z,99.90
2023-03-22T07:00:05.484Z,99.90
2023-03-22T07:02:32.169Z,99.90
2023-03-22T07:04:58.821Z,99.90
2023-03-22T07:07:25.754Z,99.90
2023-03-22T07:09:53.303Z,99.90
2023-03-22T07:12:19.965Z,99.90
2023-03-22T07:14:46.777Z,99.90
2023-03-22T07:17:14.140Z,99.90
2023-03-22T07:19:42.627Z,99.90
2023-03-22T07:22:09.359Z,99.90
2023-03-22T07:24:40.358Z,99.90
2023-03-22T07:27:11.455Z,99.90
2023-03-22T07:29:38.073Z,99.90
2023-03-22T07:32:05.463Z,99.90
2023-03-22T07:34:32.142Z,99.20
2023-03-22T07:36:58.803Z,98.50
2023-03-22T07:39:25.803Z,97.30
2023-03-22T07:41:52.590Z,97.20
2023-03-22T07:44:19.296Z,96.30
2023-03-22T07:46:46.017Z,95.80
2023-03-22T07:49:12.861Z,95.10
2023-03-22T07:51:39.500Z,94.60
2023-03-22T07:54:07.867Z,94.00
2023-03-22T07:56:34.906Z,92.10
2023-03-22T07:59:01.773Z,90.90
2023-03-22T08:01:28.541Z,91.90
2023-03-22T08:03:55.237Z,91.90
2023-03-22T08:06:21.939Z,91.90
2023-03-22T08:08:48.624Z,91.50
2023-03-22T08:11:15.601Z,91.70
2023-03-22T08:13:42.268Z,93.10
2023-03-22T08:16:09.043Z,92.80
2023-03-22T08:18:36.054Z,93.40
2023-03-22T08:21:02.788Z,92.00
2023-03-22T08:23:40.990Z,91.10
2023-03-22T08:26:09.569Z,91.80
2023-03-22T08:28:36.493Z,91.80
2023-03-22T08:31:13.252Z,89.90
2023-03-22T08:33:40.969Z,88.00
2023-03-22T08:36:11.030Z,87.40
2023-03-22T08:38:37.930Z,87.30
2023-03-22T08:41:05.008Z,86.40
2023-03-22T08:43:31.679Z,85.90
2023-03-22T08:45:58.896Z,82.90
2023-03-22T08:48:27.965Z,83.80
2023-03-22T08:50:54.770Z,81.10
2023-03-22T08:53:21.389Z,83.10
2023-03-22T08:55:48.408Z,83.00
2023-03-22T08:58:16.627Z,82.70
2023-03-22T09:00:48.914Z,82.70
2023-03-22T09:03:16.802Z,81.90
2023-03-22T09:05:43.632Z,82.00
2023-03-22T09:08:19.148Z,80.70
2023-03-22T09:10:51.306Z,82.60
2023-03-22T09:13:18.401Z,81.40
2023-03-22T09:15:45.340Z,81.00
2023-03-22T09:18:12.162Z,83.00
2023-03-22T09:20:40.052Z,83.20
2023-03-22T09:23:08.127Z,81.00
2023-03-22T09:25:34.841Z,79.60
2023-03-22T09:28:02.258Z,80.00
2023-03-22T09:30:28.928Z,79.70
2023-03-22T09:32:55.688Z,81.70
2023-03-22T09:35:22.600Z,82.60
2023-03-22T09:37:49.531Z,82.60
2023-03-22T09:40:17.883Z,83.40
2023-03-22T09:42:48.236Z,81.80
2023-03-22T09:45:30.705Z,78.00
2023-03-22T09:47:58.755Z,78.00
2023-03-22T09:50:31.291Z,78.10
2023-03-22T09:52:59.842Z,75.60
2023-03-22T09:55:55.699Z,76.00
2023-03-22T09:58:26.150Z,71.30
2023-03-22T10:01:37.325Z,67.60
2023-03-22T10:04:29.290Z,69.30
2023-03-22T10:07:06.863Z,69.20
2023-03-22T10:09:37.164Z,66.30
2023-03-22T10:12:26.746Z,64.80
2023-03-22T10:15:19.888Z,61.70
2023-03-22T10:17:52.160Z,58.40
2023-03-22T10:20:23.468Z,60.00
2023-03-22T10:22:53.416Z,57.00
2023-03-22T10:25:27.846Z,57.00
2023-03-22T10:27:54.659Z,58.10
2023-03-22T10:30:26.047Z,59.40
2023-03-22T10:33:01.083Z,58.70
2023-03-22T10:35:29.587Z,58.30
2023-03-22T10:38:00.446Z,59.70
2023-03-22T10:40:31.806Z,58.30
2023-03-22T10:43:07.704Z,58.50
2023-03-22T10:45:36.095Z,55.40
2023-03-22T10:48:07.384Z,54.00
2023-03-22T10:50:38.052Z,54.20
2023-03-22T10:53:12.224Z,52.60
2023-03-22T10:55:43.988Z,53.10
2023-03-22T10:58:14.036Z,53.50
2023-03-22T11:00:45.014Z,53.40
2023-03-22T11:03:31.947Z,54.70
2023-03-22T11:06:16.101Z,54.70
2023-03-22T11:08:46.474Z,55.80
2023-03-22T11:11:17.471Z,53.80
2023-03-22T11:13:51.145Z,52.10
2023-03-22T11:16:18.830Z,51.00
2023-03-22T11:18:45.699Z,49.00
2023-03-22T11:21:16.581Z,49.90
2023-03-22T11:23:52.256Z,49.50
2023-03-22T11:26:27.695Z,50.80
2023-03-22T11:29:06.732Z,48.30
2023-03-22T11:32:03.275Z,50.60
2023-03-22T11:34:31.589Z,49.20
2023-03-22T11:37:01.447Z,48.80
2023-03-22T11:39:30.074Z,48.40
2023-03-22T11:42:01.912Z,47.60
2023-03-22T11:44:34.019Z,48.60
2023-03-22T11:47:02.581Z,47.80
2023-03-22T11:49:44.307Z,47.20
2023-03-22T11:52:24.240Z,47.60
2023-03-22T11:54:51.939Z,46.50
2023-03-22T11:57:25.806Z,48.10
2023-03-22T12:00:19.885Z,49.90
2023-03-22T12:03:14.028Z,45.90
2023-03-22T12:05:44.407Z,46.60
2023-03-22T12:08:42.747Z,43.90
2023-03-22T12:11:15.978Z,45.70
2023-03-22T12:13:54.478Z,45.40
2023-03-22T12:16:37.903Z,41.80
2023-03-22T12:19:29.968Z,43.10
2023-03-22T12:21:58.804Z,43.80
2023-03-22T12:24:31.997Z,45.20
2023-03-22T12:27:03.578Z,45.50
2023-03-22T12:29:31.722Z,43.70
2023-03-22T12:32:03.584Z,41.00
2023-03-22T12:34:40.848Z,38.00
2023-03-22T12:37:13.889Z,37.80
2023-03-22T12:39:49.731Z,38.60
2023-03-22T12:42:30.799Z,35.80
2023-03-22T12:45:05.739Z,36.60
2023-03-22T12:47:44.056Z,37.90
2023-03-22T12:50:26.210Z,35.20
2023-03-22T12:52:57.263Z,34.40
2023-03-22T12:55:39.391Z,34.80
2023-03-22T12:58:07.830Z,37.10
2023-03-22T13:00:42.380Z,35.10
2023-03-22T13:03:18.651Z,35.30
2023-03-22T13:05:48.175Z,36.90
2023-03-22T13:08:22.440Z,39.20
2023-03-22T13:11:03.942Z,36.90
2023-03-22T13:13:42.815Z,38.30
2023-03-22T13:16:09.541Z,36.80
2023-03-22T13:18:36.363Z,35.40
2023-03-22T13:21:21.463Z,36.50
2023-03-22T13:24:12.996Z,37.40
2023-03-22T13:26:47.545Z,36.90
2023-03-22T13:29:41.898Z,37.40
2023-03-22T13:32:33.365Z,39.80
2023-03-22T13:35:00.808Z,38.50
2023-03-22T13:37:44.427Z,37.10
2023-03-22T13:40:53.245Z,38.30
2023-03-22T13:43:47.363Z,39.50
2023-03-22T13:46:24.447Z,38.20
2023-03-22T13:49:12.679Z,38.20
2023-03-22T13:51:40.349Z,38.60
2023-03-22T13:54:07.574Z,38.50
2023-03-22T13:57:03.766Z,39.20
2023-03-22T14:00:06.866Z,40.70
2023-03-22T14:02:42.199Z,40.00
2023-03-22T14:05:14.575Z,41.00
2023-03-22T14:07:50.802Z,40.90
2023-03-22T14:10:38.007Z,40.10
2023-03-22T14:13:30.781Z,41.20
2023-03-22T14:16:04.563Z,41.00
2023-03-22T14:18:34.356Z,40.70
2023-03-22T14:21:06.810Z,40.50
